Skip Navigation LinksHome page > Weather > Current weather Skip Navigation Links

Current Weather

Ben-Gurion Intl Apt, Tel Aviv, Israel

For information only: do not use for flight planning or navigation.
Latest weather
Observation time Wednesday, July 30, 2014 7:50 AM IDT
Local time Wednesday, July 30, 2014 7:59 AM IDT
Flight conditions Visual Meteorological Conditions
Winds
Wind direction South (170°)
Wind speed 8 mph
Visibility 5.6 mi.
Sky condition
Ceiling unlimited
Cloud layer scattered clouds 1,500 ft.
Temperature 79°F
Dewpoint 68°F
Altimeter 29.77 in.Hg
Derived measurements
Relative humidity 70%
Heat index 79°F
Density altitude 1765 ft.
Remarks
No significant changes expected in the next two hours.
METAR LLBG 300450Z 17007KT 9000 SCT015 26/20 Q1008 NOSIG

Settings

Location code

InnerDrive.Weather 4.0.5294.0 Release CLR 4.0.30319.34014
Copyright ©2014 Inner Drive Technology. All rights reserved. Portions Copyright ©1986-2014 David Braverman.

Find weather

Site navigation


Skip Navigation Links

Place info

Page info

PayPal - The safer, easier way to pay online!

Return home.

Copyright ©2014 Inner Drive Technology. Purveyors of fine, hand-crafted computer software. Page printed 2014-07-30T04:59:22 UTC.